Time;durP1;ratioP1;P1;durP2;ratioP2;P2;SDS_P1;SDS_P2;PMS_P1;PMS_P2;Temp;Humidity;BMP_temperature;BMP_pressure;BME280_temperature;BME280_humidity;BME280_pressure;Samples;Min_cycle;Max_cycle;Signal;HPM_P1;HPM_P2
2021/09/13 00:00:40;;;;;;;20.90;16.55;;;14.90;87.30;;;;;;5021688;28;20029;-73
2021/09/13 00:03:05;;;;;;;18.88;15.10;;;14.90;87.40;;;;;;5010302;28;20117;-74
2021/09/13 00:05:31;;;;;;;19.20;15.43;;;14.80;87.40;;;;;;5021513;28;20061;-72
2021/09/13 00:07:57;;;;;;;19.85;16.63;;;14.80;87.50;;;;;;5010227;28;20045;-73
2021/09/13 00:10:23;;;;;;;18.70;16.70;;;14.80;87.40;;;;;;5026640;28;20041;-73
2021/09/13 00:12:49;;;;;;;20.17;16.77;;;14.70;87.50;;;;;;5028151;28;20095;-72
2021/09/13 00:15:15;;;;;;;18.42;16.02;;;14.80;87.60;;;;;;5009334;28;20041;-72
2021/09/13 00:17:41;;;;;;;20.85;16.77;;;14.70;87.70;;;;;;5027225;28;20041;-77
2021/09/13 00:20:07;;;;;;;20.13;15.73;;;14.70;87.70;;;;;;5026462;28;20463;-72
2021/09/13 00:22:33;;;;;;;19.60;15.63;;;14.70;87.70;;;;;;5023598;28;20418;-71
2021/09/13 00:24:59;;;;;;;18.48;15.20;;;14.70;87.70;;;;;;5025202;28;20060;-74
2021/09/13 00:27:24;;;;;;;21.02;16.23;;;14.70;87.70;;;;;;5008031;28;20030;-74
2021/09/13 00:29:50;;;;;;;18.05;15.43;;;14.60;87.70;;;;;;5026941;28;20033;-73
2021/09/13 00:32:16;;;;;;;18.20;15.85;;;14.60;87.80;;;;;;5019548;28;20029;-74
2021/09/13 00:34:42;;;;;;;19.90;16.27;;;14.60;87.80;;;;;;5009461;28;20033;-74
2021/09/13 00:37:08;;;;;;;19.83;17.27;;;14.60;87.80;;;;;;5024876;28;20068;-74
2021/09/13 00:39:33;;;;;;;22.33;17.98;;;14.60;88.00;;;;;;5003701;28;20038;-75
2021/09/13 00:41:59;;;;;;;20.38;16.73;;;14.60;88.00;;;;;;5004612;28;20485;-73
2021/09/13 00:44:25;;;;;;;21.27;16.77;;;14.60;88.10;;;;;;5008004;28;20680;-73
2021/09/13 00:46:51;;;;;;;19.08;16.52;;;14.60;88.10;;;;;;5020862;28;20508;-73
2021/09/13 00:49:17;;;;;;;19.42;17.27;;;14.60;88.20;;;;;;5023254;28;20064;-73
2021/09/13 00:51:42;;;;;;;21.45;16.85;;;14.50;88.20;;;;;;5026189;28;20030;-73
2021/09/13 00:54:08;;;;;;;19.13;16.17;;;14.50;88.30;;;;;;5023221;28;20030;-73
2021/09/13 00:56:34;;;;;;;20.17;17.88;;;14.50;88.40;;;;;;5025326;28;20881;-73
2021/09/13 00:59:00;;;;;;;18.35;16.35;;;14.40;88.40;;;;;;5010685;28;20108;-73
2021/09/13 01:01:26;;;;;;;19.73;16.35;;;14.40;88.50;;;;;;5026818;28;20504;-73
2021/09/13 01:03:52;;;;;;;19.05;16.98;;;14.40;88.50;;;;;;5022085;28;20046;-75
2021/09/13 01:06:17;;;;;;;19.85;17.08;;;14.40;88.40;;;;;;5022425;28;20262;-75
2021/09/13 01:08:43;;;;;;;17.58;15.77;;;14.30;88.40;;;;;;5024797;28;20053;-73
2021/09/13 01:11:10;;;;;;;20.40;16.67;;;14.30;88.30;;;;;;5021528;28;20052;-76
2021/09/13 01:13:36;;;;;;;18.42;14.82;;;14.20;88.00;;;;;;5024652;28;20030;-74
2021/09/13 01:16:06;;;;;;;18.80;15.30;;;14.20;88.00;;;;;;5026767;28;20045;-74
2021/09/13 01:18:32;;;;;;;18.42;16.35;;;14.20;88.00;;;;;;5027610;28;20401;-73
2021/09/13 01:20:58;;;;;;;16.48;13.85;;;14.10;87.90;;;;;;5005936;28;20044;-73
2021/09/13 01:23:26;;;;;;;16.75;14.30;;;14.10;87.90;;;;;;5019245;28;20054;-73
2021/09/13 01:25:53;;;;;;;18.05;14.73;;;14.10;87.80;;;;;;5028136;28;20052;-74
2021/09/13 01:28:18;;;;;;;18.05;15.32;;;14.00;87.60;;;;;;5003144;28;20398;-74
2021/09/13 01:30:44;;;;;;;20.17;14.73;;;14.00;87.70;;;;;;5024361;28;20602;-73
2021/09/13 01:33:10;;;;;;;17.20;15.32;;;14.00;87.50;;;;;;5027895;28;20029;-73
2021/09/13 01:35:35;;;;;;;16.77;14.55;;;14.00;87.50;;;;;;5026007;28;20540;-72
2021/09/13 01:38:01;;;;;;;17.05;14.05;;;13.90;87.50;;;;;;5026205;28;20036;-75
2021/09/13 01:40:27;;;;;;;18.38;16.35;;;13.80;87.70;;;;;;5028686;28;20049;-73
2021/09/13 01:42:57;;;;;;;17.20;15.27;;;13.90;87.80;;;;;;5026050;28;20037;-74
2021/09/13 01:45:23;;;;;;;17.20;15.30;;;13.80;87.70;;;;;;5019874;28;20045;-73
2021/09/13 01:47:49;;;;;;;19.75;16.17;;;13.90;87.70;;;;;;5026734;28;20144;-73
2021/09/13 01:50:14;;;;;;;17.83;15.93;;;13.80;87.70;;;;;;5024073;28;20040;-74
2021/09/13 01:52:40;;;;;;;18.58;14.73;;;13.80;87.80;;;;;;5020908;28;20037;-74
2021/09/13 01:55:06;;;;;;;18.02;15.00;;;13.80;87.90;;;;;;5005016;28;20037;-73
2021/09/13 01:57:32;;;;;;;18.80;15.77;;;13.80;87.80;;;;;;5023034;28;20046;-73
2021/09/13 01:59:57;;;;;;;19.70;15.90;;;13.80;87.70;;;;;;5027691;28;20036;-72
2021/09/13 02:02:23;;;;;;;15.88;13.82;;;13.70;87.70;;;;;;5022869;28;20030;-72
2021/09/13 02:04:49;;;;;;;17.20;14.75;;;13.70;87.70;;;;;;5017926;28;20045;-73
2021/09/13 02:07:15;;;;;;;16.50;14.57;;;13.70;87.70;;;;;;5023658;28;20504;-73
2021/09/13 02:09:40;;;;;;;16.65;14.70;;;13.60;87.70;;;;;;5026750;28;20032;-72
2021/09/13 02:12:06;;;;;;;20.02;16.13;;;13.60;87.70;;;;;;5025426;28;20469;-75
2021/09/13 02:14:32;;;;;;;19.73;15.43;;;13.60;87.60;;;;;;5024743;28;20029;-73
2021/09/13 02:16:58;;;;;;;17.55;15.65;;;13.60;87.50;;;;;;5023206;28;20038;-72
2021/09/13 02:19:24;;;;;;;17.02;14.75;;;13.70;87.60;;;;;;5004724;28;20085;-71
2021/09/13 02:21:50;;;;;;;18.13;16.10;;;13.70;87.60;;;;;;5023239;28;20065;-73
2021/09/13 02:24:15;;;;;;;18.08;15.05;;;13.60;87.40;;;;;;4997604;28;20056;-73
2021/09/13 02:26:41;;;;;;;18.25;15.20;;;13.60;87.40;;;;;;5019857;28;20029;-72
2021/09/13 02:29:07;;;;;;;17.33;15.40;;;13.50;87.30;;;;;;5023670;28;20099;-73
2021/09/13 02:31:32;;;;;;;17.98;15.20;;;13.60;87.20;;;;;;5022249;28;20036;-74
2021/09/13 02:33:58;;;;;;;21.73;16.65;;;13.50;87.20;;;;;;5020205;28;20032;-73
2021/09/13 02:36:24;;;;;;;18.65;15.02;;;13.50;87.40;;;;;;5023240;28;20041;-73
2021/09/13 02:38:49;;;;;;;16.55;14.27;;;13.50;87.50;;;;;;5018251;28;20053;-73
2021/09/13 02:41:15;;;;;;;18.25;14.98;;;13.40;87.50;;;;;;5020908;28;20585;-72
2021/09/13 02:43:40;;;;;;;18.58;15.48;;;13.40;87.50;;;;;;5025343;28;20480;-75
2021/09/13 02:46:06;;;;;;;19.33;15.70;;;13.40;87.60;;;;;;5022108;28;20034;-73
2021/09/13 02:48:32;;;;;;;21.17;15.02;;;13.40;87.80;;;;;;5004791;28;20430;-72
2021/09/13 02:50:57;;;;;;;17.50;14.43;;;13.40;87.70;;;;;;5003238;28;20555;-73
2021/09/13 02:53:23;;;;;;;16.90;14.85;;;13.30;87.60;;;;;;5024663;28;20025;-72
2021/09/13 02:55:49;;;;;;;17.48;14.25;;;13.30;87.50;;;;;;5019718;28;20125;-72
2021/09/13 02:58:15;;;;;;;17.15;14.57;;;13.30;87.40;;;;;;5023557;28;20045;-73
2021/09/13 03:00:41;;;;;;;16.38;14.05;;;13.20;87.30;;;;;;5023745;28;20088;-73
2021/09/13 03:03:06;;;;;;;17.42;14.52;;;13.20;87.30;;;;;;5024586;28;20029;-74
2021/09/13 03:05:32;;;;;;;18.60;15.45;;;13.20;87.30;;;;;;5009416;28;20034;-73
2021/09/13 03:07:58;;;;;;;16.27;13.95;;;13.20;87.10;;;;;;5023704;28;20124;-73
2021/09/13 03:10:24;;;;;;;16.20;14.50;;;13.10;87.00;;;;;;5024954;28;20037;-74
2021/09/13 03:12:49;;;;;;;17.55;14.75;;;13.10;86.90;;;;;;5025605;28;20030;-73
2021/09/13 03:15:15;;;;;;;18.98;14.98;;;13.10;86.70;;;;;;5018515;28;20034;-72
2021/09/13 03:17:40;;;;;;;16.88;14.57;;;13.10;86.70;;;;;;5025290;28;20302;-73
2021/09/13 03:20:07;;;;;;;16.27;14.18;;;13.10;86.80;;;;;;5024839;28;20409;-73
2021/09/13 03:22:33;;;;;;;19.55;14.70;;;13.00;86.80;;;;;;5025000;28;20065;-72
2021/09/13 03:24:59;;;;;;;16.92;14.32;;;13.00;86.90;;;;;;5020074;28;20065;-73
2021/09/13 03:27:25;;;;;;;17.88;14.02;;;12.90;86.90;;;;;;5020324;28;20456;-73
2021/09/13 03:29:50;;;;;;;18.98;14.68;;;13.00;86.80;;;;;;5025821;28;20041;-73
2021/09/13 03:32:16;;;;;;;17.42;15.23;;;12.90;86.70;;;;;;5016815;28;20449;-76
2021/09/13 03:34:42;;;;;;;18.48;14.77;;;12.90;86.40;;;;;;5021952;28;20092;-73
2021/09/13 03:37:07;;;;;;;17.88;14.63;;;12.90;86.40;;;;;;5026442;28;20025;-73
2021/09/13 03:39:33;;;;;;;16.42;13.95;;;12.90;86.40;;;;;;5025589;28;20034;-73
2021/09/13 03:41:59;;;;;;;17.27;14.18;;;12.90;86.60;;;;;;5030125;28;20034;-73
2021/09/13 03:44:24;;;;;;;17.25;14.90;;;12.80;86.60;;;;;;5027405;28;20161;-73
2021/09/13 03:46:50;;;;;;;16.88;14.98;;;12.80;86.60;;;;;;5028569;28;20053;-73
2021/09/13 03:49:16;;;;;;;17.38;13.70;;;12.80;86.60;;;;;;5012723;28;20084;-73
2021/09/13 03:51:41;;;;;;;16.60;14.32;;;12.80;86.50;;;;;;5026403;28;20572;-73
2021/09/13 03:54:07;;;;;;;16.90;14.38;;;12.90;86.50;;;;;;5028333;28;20041;-73
2021/09/13 03:56:33;;;;;;;17.23;13.80;;;12.80;86.60;;;;;;5029862;28;20044;-73
2021/09/13 03:58:58;;;;;;;19.55;15.70;;;12.80;86.60;;;;;;5031185;28;20041;-73
2021/09/13 04:01:24;;;;;;;17.55;15.70;;;12.80;86.60;;;;;;5009012;28;20037;-72
2021/09/13 04:03:51;;;;;;;16.30;13.45;;;12.80;86.50;;;;;;5024753;28;20476;-72
2021/09/13 04:06:26;;;;;;;16.65;13.68;;;12.70;86.60;;;;;;5010924;28;20075;-74
2021/09/13 04:11:37;;;;;;;18.42;15.13;;;12.70;86.60;;;;;;5023537;28;20029;-72
2021/09/13 04:14:03;;;;;;;17.45;14.77;;;12.70;86.70;;;;;;5020085;28;20087;-72
2021/09/13 04:16:29;;;;;;;17.83;14.50;;;12.70;86.80;;;;;;5024796;28;20029;-72
2021/09/13 04:18:54;;;;;;;17.80;15.73;;;12.70;86.80;;;;;;5026283;28;20033;-72
2021/09/13 04:21:20;;;;;;;18.92;14.40;;;12.70;86.70;;;;;;5024159;28;20037;-73
2021/09/13 04:23:46;;;;;;;19.15;14.80;;;12.70;86.70;;;;;;5020319;28;20647;-73
2021/09/13 04:26:11;;;;;;;18.52;14.95;;;12.60;86.60;;;;;;5023120;28;20048;-73
2021/09/13 04:28:37;;;;;;;15.68;13.73;;;12.60;86.60;;;;;;5026498;28;20504;-72
2021/09/13 04:31:02;;;;;;;17.65;14.68;;;12.60;86.70;;;;;;5022882;28;20064;-73
2021/09/13 04:33:28;;;;;;;16.92;14.45;;;12.60;86.70;;;;;;5026922;28;20029;-73
2021/09/13 04:35:54;;;;;;;16.92;14.95;;;12.60;86.60;;;;;;5024869;28;20033;-73
2021/09/13 04:38:19;;;;;;;16.83;15.02;;;12.60;86.70;;;;;;5021959;28;20129;-73
2021/09/13 04:40:45;;;;;;;17.27;15.02;;;12.60;86.70;;;;;;5020930;28;20429;-73
2021/09/13 04:43:10;;;;;;;19.55;16.10;;;12.60;86.80;;;;;;5022427;28;20040;-73
2021/09/13 04:45:36;;;;;;;17.67;14.55;;;12.60;86.70;;;;;;5026323;28;20029;-76
2021/09/13 04:48:02;;;;;;;16.35;13.90;;;12.60;86.80;;;;;;5028045;28;20053;-73
2021/09/13 04:50:28;;;;;;;17.40;13.32;;;12.60;86.80;;;;;;5027639;28;20071;-73
2021/09/13 04:52:53;;;;;;;14.68;12.20;;;12.60;86.80;;;;;;5025534;28;20460;-72
2021/09/13 04:55:19;;;;;;;13.90;11.43;;;12.50;86.80;;;;;;5024302;28;20048;-73
2021/09/13 04:57:45;;;;;;;14.90;11.32;;;12.50;86.70;;;;;;5023787;28;20200;-73
2021/09/13 05:00:12;;;;;;;13.45;10.27;;;12.40;86.60;;;;;;5026773;28;20425;-73
2021/09/13 05:02:38;;;;;;;13.90;10.60;;;12.40;86.50;;;;;;5020552;28;20029;-73
2021/09/13 05:05:04;;;;;;;13.15;10.65;;;12.30;86.50;;;;;;5024768;28;20120;-75
2021/09/13 05:07:30;;;;;;;13.68;10.80;;;12.30;86.50;;;;;;5025870;28;20029;-72
2021/09/13 05:09:55;;;;;;;14.30;11.23;;;12.30;86.40;;;;;;5022086;28;20443;-72
2021/09/13 05:12:21;;;;;;;13.02;11.13;;;12.20;86.30;;;;;;5021668;28;20060;-74
2021/09/13 05:14:46;;;;;;;14.18;10.43;;;12.20;86.30;;;;;;5017168;28;20040;-73
2021/09/13 05:17:12;;;;;;;14.23;10.60;;;12.10;86.20;;;;;;5021096;28;20049;-74
2021/09/13 05:19:38;;;;;;;14.00;10.77;;;12.10;86.10;;;;;;5024245;28;20490;-76
2021/09/13 05:22:04;;;;;;;16.08;11.70;;;12.10;86.10;;;;;;5024942;28;20029;-73
2021/09/13 05:24:29;;;;;;;17.30;12.40;;;12.10;86.00;;;;;;5027171;28;20127;-72
2021/09/13 05:26:55;;;;;;;19.65;14.40;;;12.10;86.10;;;;;;5026055;28;20040;-72
2021/09/13 05:29:21;;;;;;;17.33;12.80;;;12.10;86.20;;;;;;5023977;28;20060;-74
2021/09/13 05:31:46;;;;;;;20.63;15.32;;;12.10;86.30;;;;;;5018627;28;20037;-73
2021/09/13 05:34:12;;;;;;;18.08;13.52;;;12.10;86.50;;;;;;5016392;28;20405;-73
2021/09/13 05:36:38;;;;;;;16.88;13.30;;;12.10;86.60;;;;;;5020601;28;20072;-76
2021/09/13 05:39:03;;;;;;;16.92;12.98;;;12.20;86.90;;;;;;5005956;28;20052;-73
2021/09/13 05:41:29;;;;;;;16.38;13.05;;;12.30;87.10;;;;;;5020872;28;20053;-73
2021/09/13 05:43:54;;;;;;;14.00;11.18;;;12.30;87.40;;;;;;5019575;28;20046;-73
2021/09/13 05:46:20;;;;;;;16.15;13.30;;;12.30;87.50;;;;;;5024993;28;20041;-71
2021/09/13 05:48:46;;;;;;;18.85;13.77;;;12.40;87.50;;;;;;5022539;28;20049;-73
2021/09/13 05:51:11;;;;;;;22.40;15.57;;;12.40;87.60;;;;;;5018576;28;20496;-74
2021/09/13 05:53:37;;;;;;;24.48;15.27;;;12.50;87.80;;;;;;5020076;28;20040;-70
2021/09/13 05:56:03;;;;;;;25.75;16.58;;;12.50;88.00;;;;;;5017832;28;20086;-71
2021/09/13 05:58:29;;;;;;;22.50;17.40;;;12.50;88.20;;;;;;5017267;28;20042;-70
2021/09/13 06:00:54;;;;;;;27.67;18.58;;;12.60;88.60;;;;;;5020945;28;20030;-71
2021/09/13 06:03:20;;;;;;;24.08;17.92;;;12.60;88.80;;;;;;5025933;28;20038;-69
2021/09/13 06:05:46;;;;;;;23.75;18.08;;;12.60;89.00;;;;;;5023481;28;20033;-70
2021/09/13 06:08:12;;;;;;;26.27;19.58;;;12.70;89.20;;;;;;5025909;28;20591;-70
2021/09/13 06:10:37;;;;;;;26.00;19.70;;;12.80;89.10;;;;;;5013926;28;20041;-69
2021/09/13 06:13:03;;;;;;;27.77;19.88;;;13.00;89.00;;;;;;5022678;28;20060;-72
2021/09/13 06:15:29;;;;;;;28.30;22.02;;;13.10;88.90;;;;;;5020647;28;20084;-69
2021/09/13 06:17:54;;;;;;;28.33;21.90;;;13.10;89.10;;;;;;5022762;28;20038;-75
2021/09/13 06:20:22;;;;;;;30.55;22.55;;;13.30;89.10;;;;;;5022575;28;20124;-73
2021/09/13 06:22:47;;;;;;;28.48;22.10;;;13.40;89.20;;;;;;5020190;28;20057;-70
2021/09/13 06:25:13;;;;;;;26.85;21.38;;;13.50;88.90;;;;;;5020088;28;20029;-70
2021/09/13 06:27:39;;;;;;;23.88;19.02;;;13.60;88.30;;;;;;5027325;28;20075;-69
2021/09/13 06:30:05;;;;;;;23.70;18.88;;;13.70;88.20;;;;;;5022326;28;20048;-70
2021/09/13 06:32:31;;;;;;;25.45;19.02;;;13.80;88.20;;;;;;5020014;28;20034;-69
2021/09/13 06:34:56;;;;;;;24.48;19.20;;;14.00;87.90;;;;;;5024751;28;20484;-69
2021/09/13 06:37:23;;;;;;;26.13;18.15;;;14.10;87.50;;;;;;5019824;28;20030;-68
2021/09/13 06:39:49;;;;;;;24.00;19.25;;;14.30;87.50;;;;;;5022650;28;20132;-69
2021/09/13 06:42:14;;;;;;;29.13;20.85;;;14.40;87.20;;;;;;5020100;28;20525;-70
2021/09/13 06:44:44;;;;;;;28.52;21.48;;;14.60;86.90;;;;;;5023093;28;20048;-72
2021/09/13 06:47:21;;;;;;;29.23;21.48;;;14.60;86.70;;;;;;5023602;28;20046;-70
2021/09/13 06:49:47;;;;;;;27.23;21.67;;;14.60;86.30;;;;;;5024422;28;20137;-75
2021/09/13 06:52:12;;;;;;;31.42;23.02;;;14.70;86.40;;;;;;5020774;28;20441;-70
2021/09/13 06:54:38;;;;;;;31.33;23.02;;;14.60;86.20;;;;;;5008766;28;20039;-69
2021/09/13 06:57:04;;;;;;;28.60;22.50;;;14.60;86.30;;;;;;5025864;28;20036;-70
2021/09/13 06:59:29;;;;;;;29.77;22.48;;;14.80;86.70;;;;;;5024998;28;20109;-71
2021/09/13 07:01:55;;;;;;;28.05;22.08;;;14.90;86.40;;;;;;5023461;28;20046;-71
2021/09/13 07:04:23;;;;;;;27.38;20.58;;;14.90;85.70;;;;;;5023098;28;20037;-71
2021/09/13 07:06:51;;;;;;;25.70;21.70;;;15.00;85.90;;;;;;5022545;28;20025;-71
2021/09/13 07:09:17;;;;;;;25.33;21.08;;;15.20;86.30;;;;;;5022354;28;20115;-70
2021/09/13 07:11:43;;;;;;;24.92;20.83;;;15.30;85.80;;;;;;5025747;28;20936;-73
2021/09/13 07:14:09;;;;;;;28.50;20.55;;;15.40;85.60;;;;;;5026746;28;20115;-73
2021/09/13 07:16:34;;;;;;;24.98;20.00;;;15.50;84.90;;;;;;5009515;28;20072;-70
2021/09/13 07:19:01;;;;;;;24.27;19.65;;;15.60;84.50;;;;;;5023697;28;20037;-69
2021/09/13 07:21:27;;;;;;;24.35;20.35;;;15.60;84.90;;;;;;5010458;28;20071;-70
2021/09/13 07:23:52;;;;;;;24.83;19.30;;;15.80;84.30;;;;;;5009488;28;20046;-70
2021/09/13 07:26:18;;;;;;;23.83;19.00;;;15.80;84.30;;;;;;5029420;28;20167;-70
2021/09/13 07:28:44;;;;;;;26.98;19.05;;;16.10;84.20;;;;;;5025633;28;20439;-70
2021/09/13 07:31:09;;;;;;;23.27;17.65;;;16.10;84.30;;;;;;5023102;28;20431;-70
2021/09/13 07:33:35;;;;;;;23.67;18.67;;;16.30;83.70;;;;;;5011277;28;20029;-70
2021/09/13 07:36:01;;;;;;;22.25;17.63;;;16.50;83.80;;;;;;5020763;28;20038;-70
2021/09/13 07:38:26;;;;;;;22.08;16.60;;;16.60;82.90;;;;;;5026053;28;20045;-71
2021/09/13 07:40:52;;;;;;;18.42;15.85;;;16.80;81.90;;;;;;5009484;28;20033;-73
2021/09/13 07:43:18;;;;;;;21.35;15.88;;;16.90;81.90;;;;;;5020748;28;20044;-69
2021/09/13 07:45:44;;;;;;;22.33;15.75;;;16.90;82.00;;;;;;5022287;28;20049;-74
2021/09/13 07:48:09;;;;;;;20.63;13.95;;;17.00;82.10;;;;;;5020340;28;20045;-70
2021/09/13 07:50:35;;;;;;;18.05;13.65;;;17.10;81.10;;;;;;5020982;28;20358;-70
2021/09/13 07:53:01;;;;;;;20.33;13.93;;;17.10;81.40;;;;;;5024132;28;20121;-71
2021/09/13 07:55:27;;;;;;;17.17;14.68;;;17.20;80.70;;;;;;5018924;28;20060;-71
2021/09/13 07:57:52;;;;;;;16.50;11.88;;;17.30;80.80;;;;;;5021249;28;20037;-70
2021/09/13 08:00:18;;;;;;;18.33;11.95;;;17.50;79.60;;;;;;5020556;28;20487;-70
2021/09/13 08:02:44;;;;;;;16.42;12.20;;;17.60;79.80;;;;;;5028149;28;20448;-70
2021/09/13 08:05:10;;;;;;;16.20;11.65;;;17.60;78.80;;;;;;5023071;28;20036;-71
2021/09/13 08:07:36;;;;;;;18.30;11.45;;;17.70;79.60;;;;;;5028870;28;20033;-70
2021/09/13 08:10:02;;;;;;;15.98;11.77;;;17.90;78.80;;;;;;5021720;28;20624;-71
2021/09/13 08:12:28;;;;;;;15.13;10.55;;;18.00;77.20;;;;;;5027714;28;20116;-70
2021/09/13 08:14:54;;;;;;;14.50;9.95;;;17.70;78.10;;;;;;5028538;28;20472;-69
2021/09/13 08:17:20;;;;;;;15.65;11.98;;;17.70;77.90;;;;;;5004943;28;20033;-71
2021/09/13 08:19:45;;;;;;;17.13;12.50;;;17.50;78.20;;;;;;5023943;28;20043;-73
2021/09/13 08:22:12;;;;;;;17.23;12.43;;;17.40;78.70;;;;;;5025505;28;20532;-72
2021/09/13 08:24:37;;;;;;;17.77;12.88;;;17.50;79.00;;;;;;5029782;28;20116;-71
2021/09/13 08:27:03;;;;;;;16.90;13.43;;;17.50;79.30;;;;;;5024209;28;20037;-72
2021/09/13 08:29:29;;;;;;;18.38;13.52;;;17.60;78.80;;;;;;5017456;28;20050;-72
2021/09/13 08:31:56;;;;;;;18.20;13.95;;;17.70;78.00;;;;;;5028937;28;20029;-74
2021/09/13 08:34:22;;;;;;;18.20;14.02;;;17.60;78.60;;;;;;5037907;28;20029;-78
2021/09/13 08:36:49;;;;;;;17.75;13.77;;;17.70;78.30;;;;;;5046788;28;20034;-74
2021/09/13 08:39:15;;;;;;;17.45;14.18;;;17.90;78.30;;;;;;5035648;28;20026;-71
2021/09/13 08:41:42;;;;;;;16.38;13.35;;;18.10;77.70;;;;;;5025515;28;20523;-72
2021/09/13 08:44:09;;;;;;;17.65;12.38;;;18.40;77.10;;;;;;5023514;28;20128;-73
2021/09/13 08:49:10;;;;;;;17.65;11.55;;;18.60;75.30;;;;;;5023335;28;20045;-69
2021/09/13 08:51:36;;;;;;;15.30;12.02;;;18.80;74.10;;;;;;5022841;28;20037;-69
2021/09/13 08:54:12;;;;;;;16.85;11.30;;;19.00;73.80;;;;;;5026096;28;20094;-73
2021/09/13 08:56:42;;;;;;;12.88;9.60;;;19.20;73.20;;;;;;5030225;28;20044;-70
2021/09/13 08:59:16;;;;;;;16.75;10.18;;;19.20;71.70;;;;;;5026773;28;20049;-70
2021/09/13 09:01:42;;;;;;;;;;;19.20;71.70;;;;;;5025605;28;20086;-69
2021/09/13 09:04:10;;;;;;;12.05;7.63;;;19.20;71.70;;;;;;5010584;28;19917;-69
2021/09/13 09:06:41;;;;;;;11.93;7.55;;;19.40;70.10;;;;;;5027894;28;20465;-69
2021/09/13 09:09:11;;;;;;;14.85;8.68;;;19.10;71.30;;;;;;5025223;28;20052;-68
2021/09/13 09:12:03;;;;;;;12.45;8.55;;;19.40;69.50;;;;;;5025168;28;20030;-69
2021/09/13 09:14:34;;;;;;;11.40;7.30;;;19.70;69.80;;;;;;5029330;28;20048;-69
2021/09/13 09:17:13;;;;;;;11.35;7.18;;;19.90;69.30;;;;;;5024774;28;20044;-68
2021/09/13 09:19:40;;;;;;;12.98;7.45;;;19.80;68.40;;;;;;5022948;28;20128;-69
2021/09/13 09:22:26;;;;;;;10.73;8.13;;;19.90;68.00;;;;;;5023989;28;20033;-71
2021/09/13 09:24:54;;;;;;;13.45;8.73;;;20.00;68.80;;;;;;5027495;28;20472;-70
2021/09/13 09:27:21;;;;;;;13.25;8.50;;;19.80;68.30;;;;;;5018895;28;20092;-70
2021/09/13 09:29:46;;;;;;;11.52;8.57;;;19.60;69.30;;;;;;5028587;28;20037;-70
2021/09/13 09:32:27;;;;;;;11.30;7.97;;;19.90;69.50;;;;;;5024565;28;20041;-69
2021/09/13 09:34:54;;;;;;;12.23;8.52;;;20.10;68.70;;;;;;5008435;28;20454;-69
2021/09/13 09:37:24;;;;;;;13.05;8.63;;;20.20;68.70;;;;;;5024261;28;20068;-77
2021/09/13 09:39:56;;;;;;;12.32;8.55;;;20.30;68.00;;;;;;5025813;28;20374;-70
2021/09/13 09:42:38;;;;;;;11.02;9.48;;;20.30;68.10;;;;;;5028220;28;20429;-70
2021/09/13 09:45:15;;;;;;;13.45;8.35;;;19.90;68.10;;;;;;5023916;28;20394;-69
2021/09/13 09:47:41;;;;;;;12.27;8.75;;;19.80;69.20;;;;;;5026892;28;20156;-69
2021/09/13 09:50:07;;;;;;;10.32;7.60;;;19.90;67.90;;;;;;5024116;28;20053;-69
2021/09/13 09:52:36;;;;;;;13.48;7.75;;;19.70;67.90;;;;;;5022484;28;20041;-77
2021/09/13 09:55:10;;;;;;;11.38;7.47;;;19.80;67.60;;;;;;5019472;28;20042;-69
2021/09/13 09:57:36;;;;;;;13.07;7.07;;;19.80;68.10;;;;;;5018362;28;20448;-70
2021/09/13 10:00:17;;;;;;;11.07;7.40;;;20.00;67.60;;;;;;5007776;28;20117;-70
2021/09/13 10:02:43;;;;;;;11.32;6.05;;;19.90;66.60;;;;;;5005327;28;20451;-70
2021/09/13 10:05:08;;;;;;;10.00;6.20;;;20.10;67.20;;;;;;5007108;28;20513;-72
2021/09/13 10:07:34;;;;;;;8.68;5.95;;;19.90;65.10;;;;;;5025091;28;20085;-74
2021/09/13 10:10:01;;;;;;;9.52;5.22;;;19.70;66.60;;;;;;5028277;28;20045;-71
2021/09/13 10:12:27;;;;;;;7.80;4.68;;;19.60;65.60;;;;;;5026416;28;20041;-70
2021/09/13 10:14:53;;;;;;;11.07;5.00;;;19.70;64.80;;;;;;5022581;28;20041;-70
2021/09/13 10:17:18;;;;;;;9.93;5.40;;;20.10;65.40;;;;;;5024254;28;20044;-69
2021/09/13 10:19:44;;;;;;;8.13;4.70;;;20.20;65.00;;;;;;5025816;28;20038;-69
2021/09/13 10:22:10;;;;;;;8.82;4.82;;;20.30;63.10;;;;;;5021702;28;20036;-70
2021/09/13 10:24:38;;;;;;;8.98;5.15;;;20.10;64.00;;;;;;5024690;28;20544;-70
2021/09/13 10:27:14;;;;;;;10.38;5.32;;;20.50;64.10;;;;;;5016890;28;20072;-72
2021/09/13 10:29:40;;;;;;;11.43;4.03;;;20.90;63.60;;;;;;5028359;28;20042;-69
2021/09/13 10:32:14;;;;;;;10.35;4.15;;;20.80;61.20;;;;;;5024976;28;20120;-71
2021/09/13 10:34:39;;;;;;;8.48;4.35;;;20.80;61.50;;;;;;5025414;28;20041;-69
2021/09/13 10:37:24;;;;;;;10.38;5.30;;;21.10;60.50;;;;;;5023359;28;20045;-71
2021/09/13 10:39:52;;;;;;;;;;;21.30;61.30;;;;;;5016779;28;20030;-69
2021/09/13 10:42:45;;;;;;;8.88;5.20;;;21.10;60.60;;;;;;5018448;28;20360;-70
2021/09/13 10:45:21;;;;;;;9.25;4.40;;;21.30;61.00;;;;;;5000028;28;20029;-70
2021/09/13 10:48:09;;;;;;;10.43;4.65;;;21.40;59.60;;;;;;5017499;28;20040;-70
2021/09/13 10:50:47;;;;;;;11.15;4.88;;;21.10;60.40;;;;;;5009218;28;20045;-70
2021/09/13 10:53:33;;;;;;;7.97;4.43;;;20.90;62.50;;;;;;5019704;28;20057;-70
2021/09/13 10:56:04;;;;;;;10.93;5.15;;;21.30;59.50;;;;;;5005976;28;20132;-69
2021/09/13 10:58:44;;;;;;;9.20;4.15;;;21.50;59.60;;;;;;5015272;28;20029;-68
2021/09/13 11:01:16;;;;;;;10.30;4.65;;;21.50;59.20;;;;;;5018508;28;20030;-71
2021/09/13 11:03:42;;;;;;;9.45;4.18;;;21.50;56.80;;;;;;5014274;28;20069;-70
2021/09/13 11:06:08;;;;;;;13.07;5.20;;;20.80;58.70;;;;;;5022839;28;20053;-73
2021/09/13 11:08:39;;;;;;;8.77;4.90;;;20.90;59.20;;;;;;5021244;28;20053;-70
2021/09/13 11:11:25;;;;;;;9.23;3.90;;;21.20;59.50;;;;;;5015977;28;20038;-69
2021/09/13 11:14:08;;;;;;;8.32;4.15;;;21.60;56.90;;;;;;5015613;28;20056;-69
2021/09/13 11:16:40;;;;;;;8.23;4.78;;;21.30;58.20;;;;;;5018597;28;20053;-71
2021/09/13 11:19:12;;;;;;;9.20;4.97;;;21.60;57.30;;;;;;5019943;28;20543;-69
2021/09/13 11:21:44;;;;;;;8.63;5.07;;;21.60;57.50;;;;;;5022920;28;20025;-72
2021/09/13 11:24:17;;;;;;;8.73;4.07;;;21.30;58.20;;;;;;5015829;28;20038;-69
2021/09/13 11:26:56;;;;;;;9.50;5.88;;;21.30;58.60;;;;;;5016666;28;20148;-69
2021/09/13 11:29:26;;;;;;;7.90;4.68;;;21.30;59.30;;;;;;5018818;28;20175;-70
2021/09/13 11:31:54;;;;;;;9.32;3.95;;;21.60;59.60;;;;;;5019603;28;20386;-69
2021/09/13 11:34:47;;;;;;;7.65;4.40;;;21.60;58.50;;;;;;5024096;28;20115;-69
2021/09/13 11:37:20;;;;;;;8.88;3.72;;;21.30;58.70;;;;;;5016581;28;20113;-69
2021/09/13 11:39:59;;;;;;;9.80;3.50;;;21.50;57.70;;;;;;5024441;28;20172;-70
2021/09/13 11:42:27;;;;;;;8.00;3.90;;;21.60;56.90;;;;;;5019364;28;20061;-69
2021/09/13 11:45:02;;;;;;;12.05;3.95;;;21.80;56.60;;;;;;5003585;28;20038;-70
2021/09/13 11:47:32;;;;;;;7.07;3.45;;;22.20;55.90;;;;;;5021567;28;20120;-69
2021/09/13 11:50:00;;;;;;;7.25;3.92;;;22.40;55.50;;;;;;5023094;28;20413;-69
2021/09/13 11:52:30;;;;;;;7.63;3.83;;;21.90;56.90;;;;;;5025210;28;20144;-68
2021/09/13 11:55:04;;;;;;;7.60;3.50;;;21.50;58.30;;;;;;5024750;28;20128;-74
2021/09/13 11:57:46;;;;;;;7.20;3.72;;;21.90;57.70;;;;;;5020872;28;20038;-69
2021/09/13 12:00:15;;;;;;;8.50;3.78;;;22.30;54.50;;;;;;5023397;28;20041;-70
2021/09/13 12:02:47;;;;;;;7.72;3.85;;;22.20;54.80;;;;;;5029523;28;20463;-69
2021/09/13 12:05:16;;;;;;;7.53;3.72;;;22.00;55.90;;;;;;5028384;28;20483;-69
2021/09/13 12:07:47;;;;;;;7.05;3.28;;;22.00;56.00;;;;;;5028538;28;20082;-69
2021/09/13 12:10:17;;;;;;;8.40;4.40;;;22.50;54.40;;;;;;5028327;28;20107;-69
2021/09/13 12:12:46;;;;;;;8.50;3.90;;;22.60;53.20;;;;;;5021187;28;20461;-69
2021/09/13 12:15:13;;;;;;;9.27;4.53;;;22.40;54.00;;;;;;5019715;28;20044;-70
2021/09/13 12:17:40;;;;;;;8.88;4.30;;;22.50;54.40;;;;;;5020464;28;20034;-69
2021/09/13 12:20:10;;;;;;;9.48;5.30;;;22.50;56.10;;;;;;5022976;28;20040;-68
2021/09/13 12:22:37;;;;;;;7.57;4.18;;;22.70;55.00;;;;;;5028162;28;20087;-71
2021/09/13 12:25:13;;;;;;;9.73;4.82;;;22.80;55.10;;;;;;5025366;28;20054;-70
2021/09/13 12:27:41;;;;;;;9.82;4.63;;;23.10;54.70;;;;;;5030563;28;20473;-70
2021/09/13 12:30:12;;;;;;;9.35;5.28;;;23.10;54.50;;;;;;5027550;28;20381;-70
2021/09/13 12:32:38;;;;;;;8.00;5.30;;;23.00;55.20;;;;;;5010545;28;20049;-69
2021/09/13 12:35:06;;;;;;;10.35;5.22;;;22.80;54.70;;;;;;5025790;28;20030;-70
2021/09/13 12:37:38;;;;;;;11.25;5.10;;;22.30;56.30;;;;;;5020411;28;20057;-73